Accueil
METAR-TAF:

METAR-TAF

Aéroports :

Aéroport international de N'Djaména

Ndjamena, Tchad

latitude: 12-08N, longitude: 015-02E, altitude: 295 m

Observation

Le bulletin a été fait il y a 55 minutes, à 06:00 UTC
Vent 2 kt de nord/nord-ouest
Température 18°C
Humidité 45%
Pression 1011 hPa
Visibilité: 6000 m

METAR: FTTJ 230600Z 34002KT 6000 NSC 18/06 Q1011 NOSIG

Heure: 07:55 (06:55 UTC)

Prévision

Le bulletin a été fait il y a 1 heure et 55 minutes, à 05:00 UTC
Prévision valable du 23 à 06 UTC au 24 à 12 UTC
Vent 8 kt de nord
Visibilité 10 km ou plus
pas de nuages en-dessous de 1500 mètres et pas de cumulonimbus.
Temporairement
du 23 à 16 UTC au 23 à 19 UTC
Visibilité: 4000 m
brume sèche
Temporairement
du 24 à 04 UTC au 24 à 07 UTC
Visibilité: 4000 m
brume sèche

TAF: FTTJ 230500Z 2306/2412 36008KT CAVOK TEMPO 2316/2319 4000 HZ TEMPO 2404/2407 4000 HZ

Observations et prévisions météorologiques de plus de 4000 aéroports (messages METAR et TAF).

Les stations disponibles sont représentées par des disques jaunes et rouges sur la carte.

Passer la souris dessus pour voir le nom de la station.

Cliquer dessus pour voir les observations et prévisions météorologiques.

Pour changer de carte: cliquez sur les boutons verts avec une croix noire pour zoomer, sur le bouton vert avec un tiret pour effectuer un zoom arrière, ou sur les flèches vertes pour les cartes adjacentes.


METAR-TAF: